createdAt,value
2022-10-23T00:01:35.825Z,6.93
2022-10-23T00:03:37.856Z,7.55
2022-10-23T00:05:41.582Z,7.63
2022-10-23T00:07:43.760Z,6.97
2022-10-23T00:09:45.982Z,6.88
2022-10-23T00:11:50.315Z,7.03
2022-10-23T00:13:55.645Z,7.40
2022-10-23T00:15:57.677Z,7.53
2022-10-23T00:18:00.283Z,7.15
2022-10-23T00:20:02.354Z,6.65
2022-10-23T00:22:05.988Z,6.78
2022-10-23T00:26:15.902Z,7.05
2022-10-23T00:28:18.247Z,6.68
2022-10-23T00:30:20.506Z,7.57
2022-10-23T00:34:24.687Z,7.28
2022-10-23T00:36:26.823Z,6.32
2022-10-23T00:38:29.055Z,7.25
2022-10-23T00:40:31.750Z,8.07
2022-10-23T00:42:33.758Z,7.82
2022-10-23T00:44:35.900Z,7.38
2022-10-23T00:46:40.423Z,7.82
2022-10-23T00:48:42.472Z,7.13
2022-10-23T00:50:46.487Z,7.00
2022-10-23T00:52:52.538Z,6.72
2022-10-23T00:54:56.218Z,7.65
2022-10-23T00:57:01.506Z,7.80
2022-10-23T00:59:04.292Z,7.43
2022-10-23T01:01:22.265Z,7.28
2022-10-23T01:03:28.769Z,8.50
2022-10-23T01:05:41.579Z,7.32
2022-10-23T01:07:46.324Z,8.70
2022-10-23T01:10:03.682Z,8.43
2022-10-23T01:12:24.576Z,7.72
2022-10-23T01:14:47.643Z,8.02
2022-10-23T01:17:30.462Z,9.10
2022-10-23T01:20:07.172Z,9.60
2022-10-23T01:22:28.027Z,8.52
2022-10-23T01:24:56.952Z,8.32
2022-10-23T01:27:17.811Z,9.60
2022-10-23T01:29:37.047Z,8.77
2022-10-23T01:31:59.117Z,9.38
2022-10-23T01:34:10.976Z,8.18
2022-10-23T01:36:20.542Z,9.27
2022-10-23T01:38:46.368Z,10.25
2022-10-23T01:41:03.194Z,9.07
2022-10-23T01:43:11.168Z,10.23
2022-10-23T01:45:20.647Z,9.88
2022-10-23T01:47:27.566Z,8.93
2022-10-23T01:49:39.327Z,9.10
2022-10-23T01:51:45.374Z,8.50
2022-10-23T01:53:51.311Z,9.02
2022-10-23T01:55:55.626Z,9.15
2022-10-23T01:58:02.767Z,8.68
2022-10-23T02:00:14.566Z,10.20
2022-10-23T02:02:29.070Z,9.32
2022-10-23T02:04:36.528Z,8.68
2022-10-23T02:06:38.825Z,10.00
2022-10-23T02:10:54.826Z,8.77
2022-10-23T02:13:17.774Z,9.20
2022-10-23T02:15:30.103Z,10.20
2022-10-23T02:17:44.170Z,9.43
2022-10-23T02:19:49.077Z,10.73
2022-10-23T02:22:23.273Z,10.88
2022-10-23T02:24:35.854Z,10.48
2022-10-23T02:26:50.124Z,11.30
2022-10-23T02:29:01.882Z,12.07
2022-10-23T02:31:10.433Z,10.55
2022-10-23T02:33:14.583Z,10.82
2022-10-23T02:35:18.975Z,11.30
2022-10-23T02:39:29.755Z,11.90
2022-10-23T02:41:58.269Z,12.05
2022-10-23T02:44:45.809Z,11.90
2022-10-23T02:47:24.749Z,12.73
2022-10-23T02:49:37.528Z,12.90
2022-10-23T02:51:48.498Z,13.50
2022-10-23T02:54:14.992Z,14.00
2022-10-23T02:56:23.050Z,12.82
2022-10-23T02:58:27.699Z,12.60
2022-10-23T03:00:32.817Z,13.05
2022-10-23T03:02:59.876Z,13.77
2022-10-23T03:05:08.077Z,13.43
2022-10-23T03:07:14.475Z,12.35
2022-10-23T03:09:18.841Z,13.13
2022-10-23T03:11:21.108Z,14.35
2022-10-23T03:13:24.741Z,13.07
2022-10-23T03:15:27.772Z,13.93
2022-10-23T03:17:30.377Z,14.10
2022-10-23T03:19:34.769Z,13.65
2022-10-23T03:21:39.134Z,14.02
2022-10-23T03:23:43.547Z,14.88
2022-10-23T03:25:50.491Z,14.82
2022-10-23T03:28:06.038Z,15.90
2022-10-23T03:30:10.931Z,14.77
2022-10-23T03:32:14.931Z,13.85
2022-10-23T03:34:17.289Z,12.60
2022-10-23T03:36:19.331Z,14.13
2022-10-23T03:38:21.585Z,15.05
2022-10-23T03:40:23.759Z,13.98
2022-10-23T03:42:25.933Z,13.93
2022-10-23T03:44:27.950Z,14.30
2022-10-23T03:46:32.182Z,13.50
2022-10-23T03:48:34.199Z,15.13
2022-10-23T03:50:36.463Z,13.15
2022-10-23T03:52:40.816Z,14.95
2022-10-23T03:54:43.177Z,14.02
2022-10-23T03:56:45.874Z,14.10
2022-10-23T03:58:48.306Z,15.57
2022-10-23T04:00:50.746Z,14.32
2022-10-23T04:02:52.926Z,14.98
2022-10-23T04:04:55.719Z,14.55
2022-10-23T04:06:58.346Z,15.10
2022-10-23T04:09:01.105Z,13.60
2022-10-23T04:11:03.517Z,13.95
2022-10-23T04:13:11.403Z,14.43
2022-10-23T04:15:13.660Z,13.40
2022-10-23T04:17:18.942Z,14.05
2022-10-23T04:19:24.563Z,14.00
2022-10-23T04:21:30.724Z,13.88
2022-10-23T04:23:32.934Z,14.02
2022-10-23T04:25:35.094Z,14.13
2022-10-23T04:27:39.410Z,13.98
2022-10-23T04:31:43.454Z,12.48
2022-10-23T04:33:45.557Z,13.55
2022-10-23T04:36:01.274Z,13.27
2022-10-23T04:38:03.440Z,13.80
2022-10-23T04:40:06.107Z,14.55
2022-10-23T04:42:10.362Z,13.27
2022-10-23T04:44:12.358Z,12.55
2022-10-23T04:46:14.509Z,13.32
2022-10-23T04:48:16.774Z,13.13
2022-10-23T04:50:41.515Z,13.48
2022-10-23T04:53:12.691Z,13.52
2022-10-23T04:55:53.305Z,12.85
2022-10-23T04:58:10.444Z,11.82
2022-10-23T05:00:14.890Z,12.32
2022-10-23T05:02:25.205Z,12.27
2022-10-23T05:04:28.259Z,11.70
2022-10-23T05:06:48.832Z,12.50
2022-10-23T05:08:58.312Z,11.55
2022-10-23T05:11:14.840Z,12.25
2022-10-23T05:13:21.222Z,12.50
2022-10-23T05:15:24.741Z,12.00
2022-10-23T05:17:34.140Z,12.75
2022-10-23T05:19:43.671Z,11.18
2022-10-23T05:21:46.586Z,12.18
2022-10-23T05:23:50.779Z,11.13
2022-10-23T05:25:53.071Z,12.38
2022-10-23T05:27:55.130Z,12.27
2022-10-23T05:29:57.665Z,13.65
2022-10-23T05:32:07.080Z,13.10
2022-10-23T05:34:13.323Z,12.43
2022-10-23T05:36:19.008Z,12.07
2022-10-23T05:38:21.861Z,12.13
2022-10-23T05:40:24.793Z,11.27
2022-10-23T05:42:34.420Z,12.65
2022-10-23T05:44:38.338Z,12.25
2022-10-23T05:47:15.698Z,12.18
2022-10-23T05:49:36.729Z,12.23
2022-10-23T05:52:02.154Z,12.05
2022-10-23T05:54:15.771Z,11.70
2022-10-23T05:56:29.597Z,12.00
2022-10-23T05:58:37.568Z,10.75
2022-10-23T06:00:47.615Z,10.30
2022-10-23T06:05:17.257Z,10.80
2022-10-23T06:07:28.313Z,13.00
2022-10-23T06:09:32.954Z,12.75
2022-10-23T06:11:35.245Z,11.98
2022-10-23T06:13:44.273Z,12.23
2022-10-23T06:15:46.858Z,11.68
2022-10-23T06:18:04.725Z,11.38
2022-10-23T06:20:10.411Z,11.60
2022-10-23T06:22:15.069Z,11.82
2022-10-23T06:24:28.421Z,11.55
2022-10-23T06:26:35.989Z,11.82
2022-10-23T06:28:43.736Z,11.90
2022-10-23T06:30:46.434Z,12.18
2022-10-23T06:32:48.593Z,12.57
2022-10-23T06:34:51.235Z,11.30
2022-10-23T06:36:53.320Z,11.50
2022-10-23T06:39:10.547Z,10.85
2022-10-23T06:41:31.350Z,12.18
2022-10-23T06:43:33.740Z,11.05
2022-10-23T06:45:54.685Z,11.73
2022-10-23T06:48:23.213Z,11.68
2022-10-23T06:50:37.858Z,12.23
2022-10-23T06:52:47.380Z,11.82
2022-10-23T06:54:52.991Z,13.48
2022-10-23T06:57:00.101Z,12.93
2022-10-23T06:59:14.429Z,14.65
2022-10-23T07:01:17.223Z,15.40
2022-10-23T07:03:38.158Z,11.07
2022-10-23T07:05:44.983Z,11.27
2022-10-23T07:07:48.390Z,11.18
2022-10-23T07:09:56.569Z,11.60
2022-10-23T07:12:01.998Z,10.68
2022-10-23T07:14:13.743Z,13.53
2022-10-23T07:16:20.223Z,11.68
2022-10-23T07:18:25.664Z,11.60
2022-10-23T07:21:06.481Z,11.65
2022-10-23T07:23:12.323Z,12.38
2022-10-23T07:25:15.618Z,11.65
2022-10-23T07:27:18.103Z,12.60
2022-10-23T07:29:39.154Z,12.45
2022-10-23T07:31:51.216Z,11.18
2022-10-23T07:34:16.477Z,11.48
2022-10-23T07:36:30.527Z,10.88
2022-10-23T07:38:33.074Z,12.10
2022-10-23T07:40:36.616Z,10.40
2022-10-23T07:42:39.497Z,11.70
2022-10-23T07:44:44.820Z,13.05
2022-10-23T07:46:50.401Z,11.35
2022-10-23T07:48:56.254Z,12.05
2022-10-23T07:51:03.659Z,11.73
2022-10-23T07:53:06.619Z,11.82
2022-10-23T07:55:17.213Z,12.25
2022-10-23T07:57:23.930Z,12.95
2022-10-23T07:59:42.957Z,12.60
2022-10-23T08:01:50.534Z,12.40
2022-10-23T08:03:55.687Z,12.48
2022-10-23T08:05:58.661Z,13.35
2022-10-23T08:08:00.886Z,11.98
2022-10-23T08:12:06.675Z,13.23
2022-10-23T08:14:10.395Z,14.48
2022-10-23T08:16:14.141Z,13.10
2022-10-23T08:18:45.603Z,12.73
2022-10-23T08:20:48.808Z,14.82
2022-10-23T08:22:51.946Z,14.57
2022-10-23T08:24:59.420Z,14.57
2022-10-23T08:27:01.616Z,14.32
2022-10-23T08:29:05.854Z,14.65
2022-10-23T08:31:14.364Z,14.50
2022-10-23T08:33:23.606Z,14.57
2022-10-23T08:35:25.848Z,15.55
2022-10-23T08:37:28.069Z,14.95
2022-10-23T08:39:30.234Z,14.38
2022-10-23T08:41:49.364Z,15.50
2022-10-23T08:43:59.604Z,15.02
2022-10-23T08:46:15.567Z,16.48
2022-10-23T08:48:49.576Z,14.50
2022-10-23T08:51:33.330Z,14.63
2022-10-23T08:54:04.662Z,14.57
2022-10-23T08:56:33.516Z,16.02
2022-10-23T08:58:55.819Z,16.48
2022-10-23T09:00:58.516Z,15.82
2022-10-23T09:03:07.878Z,15.10
2022-10-23T09:05:43.768Z,15.68
2022-10-23T09:08:00.679Z,16.02
2022-10-23T09:10:14.477Z,15.35
2022-10-23T09:12:21.285Z,16.55
2022-10-23T09:14:40.671Z,15.50
2022-10-23T09:16:52.445Z,15.02
2022-10-23T09:18:55.950Z,16.20
2022-10-23T09:20:58.342Z,15.63
2022-10-23T09:23:07.484Z,14.75
2022-10-23T09:25:20.052Z,15.38
2022-10-23T09:29:29.241Z,15.10
2022-10-23T09:31:31.285Z,15.05
2022-10-23T09:33:34.843Z,14.00
2022-10-23T09:35:36.914Z,15.50
2022-10-23T09:37:48.566Z,15.82
2022-10-23T09:40:02.373Z,16.17
2022-10-23T09:42:35.003Z,15.52
2022-10-23T09:44:51.062Z,16.13
2022-10-23T09:47:18.479Z,15.60
2022-10-23T09:49:24.341Z,16.38
2022-10-23T09:51:29.544Z,17.60
2022-10-23T09:53:40.412Z,16.63
2022-10-23T09:55:42.509Z,18.85
2022-10-23T09:57:45.736Z,18.50
2022-10-23T09:59:55.577Z,16.80
2022-10-23T10:02:00.784Z,16.75
2022-10-23T10:04:37.650Z,16.95
2022-10-23T10:08:52.136Z,18.58
2022-10-23T10:11:00.621Z,18.70
2022-10-23T10:13:27.081Z,17.73
2022-10-23T10:15:48.285Z,16.27
2022-10-23T10:18:35.613Z,18.30
2022-10-23T10:21:01.379Z,19.70
2022-10-23T10:23:13.481Z,19.30
2022-10-23T10:25:21.563Z,20.65
2022-10-23T10:27:42.903Z,22.42
2022-10-23T10:30:05.237Z,19.55
2022-10-23T10:32:43.027Z,20.13
2022-10-23T10:35:17.014Z,19.80
2022-10-23T10:37:24.875Z,19.02
2022-10-23T10:39:39.899Z,19.63
2022-10-23T10:41:55.089Z,20.50
2022-10-23T10:44:40.852Z,17.48
2022-10-23T10:47:04.375Z,19.20
2022-10-23T10:49:39.106Z,19.80
2022-10-23T10:52:04.414Z,19.70
2022-10-23T10:54:34.532Z,19.80
2022-10-23T10:56:42.434Z,19.05
2022-10-23T10:58:47.799Z,21.25
2022-10-23T11:00:58.931Z,19.08
2022-10-23T11:03:10.071Z,19.27
2022-10-23T11:05:12.278Z,19.30
2022-10-23T11:07:20.780Z,17.60
2022-10-23T11:09:30.523Z,18.45
2022-10-23T11:11:40.695Z,20.60
2022-10-23T11:13:44.807Z,20.40
2022-10-23T11:15:48.952Z,19.27
2022-10-23T11:17:56.050Z,21.30
2022-10-23T11:20:10.889Z,20.90
2022-10-23T11:22:28.376Z,19.75
2022-10-23T11:24:53.382Z,20.90
2022-10-23T11:27:12.044Z,19.73
2022-10-23T11:29:52.003Z,21.48
2022-10-23T11:32:12.700Z,22.48
2022-10-23T11:34:35.570Z,21.08
2022-10-23T11:36:53.999Z,21.95
2022-10-23T11:39:15.827Z,21.35
2022-10-23T11:41:21.016Z,21.77
2022-10-23T11:43:52.809Z,22.95
2022-10-23T11:45:54.971Z,21.20
2022-10-23T11:48:20.750Z,24.02
2022-10-23T11:50:49.808Z,24.48
2022-10-23T11:53:15.007Z,23.23
2022-10-23T11:55:24.522Z,21.73
2022-10-23T11:57:28.259Z,26.13
2022-10-23T11:59:32.903Z,22.20
2022-10-23T12:01:42.851Z,24.05
2022-10-23T12:03:54.576Z,23.17
2022-10-23T12:06:00.511Z,20.42
2022-10-23T12:08:05.570Z,24.27
2022-10-23T12:10:28.890Z,23.50
2022-10-23T12:12:43.254Z,23.27
2022-10-23T12:14:47.224Z,22.00
2022-10-23T12:16:49.303Z,22.80
2022-10-23T12:18:54.291Z,21.15
2022-10-23T12:21:03.381Z,22.05
2022-10-23T12:23:14.379Z,22.25
2022-10-23T12:25:34.613Z,22.40
2022-10-23T12:27:46.481Z,21.60
2022-10-23T12:29:56.369Z,23.08
2022-10-23T12:32:09.824Z,22.30
2022-10-23T12:34:45.458Z,22.52
2022-10-23T12:37:12.498Z,22.23
2022-10-23T12:39:31.160Z,21.48
2022-10-23T12:41:35.084Z,22.42
2022-10-23T12:43:38.799Z,21.77
2022-10-23T12:45:43.687Z,23.85
2022-10-23T12:47:47.173Z,22.55
2022-10-23T12:49:50.610Z,23.98
2022-10-23T12:52:03.490Z,21.98
2022-10-23T12:54:19.049Z,22.83
2022-10-23T12:56:22.160Z,23.50
2022-10-23T12:58:35.355Z,21.98
2022-10-23T13:00:51.494Z,21.98
2022-10-23T13:03:04.255Z,21.17
2022-10-23T13:07:09.551Z,20.95
2022-10-23T13:09:42.159Z,23.05
2022-10-23T13:12:07.777Z,22.67
2022-10-23T13:14:14.485Z,22.27
2022-10-23T13:16:24.156Z,21.88
2022-10-23T13:18:26.232Z,21.67
2022-10-23T13:20:38.085Z,24.42
2022-10-23T13:22:41.187Z,22.13
2022-10-23T13:24:44.054Z,21.20
2022-10-23T13:26:46.477Z,21.92
2022-10-23T13:31:07.820Z,18.75
2022-10-23T13:33:23.582Z,20.02
2022-10-23T13:35:25.783Z,17.58
